sensor_id;sensor_type;location;lat;lon;timestamp;P1;durP1;ratioP1;P2;durP2;ratioP2
65751;SDS011;52486;51.098;13.770;2023-05-10T00:00:04;1.65;;;1.52;;
65751;SDS011;52486;51.098;13.770;2023-05-10T00:02:31;1.52;;;1.42;;
65751;SDS011;52486;51.098;13.770;2023-05-10T00:04:56;1.65;;;1.55;;
65751;SDS011;52486;51.098;13.770;2023-05-10T00:07:23;1.60;;;1.50;;
65751;SDS011;52486;51.098;13.770;2023-05-10T00:09:48;2.47;;;1.80;;
65751;SDS011;52486;51.098;13.770;2023-05-10T00:12:14;2.00;;;1.70;;
65751;SDS011;52486;51.098;13.770;2023-05-10T00:14:40;2.58;;;1.63;;
65751;SDS011;52486;51.098;13.770;2023-05-10T00:17:06;1.42;;;1.33;;
65751;SDS011;52486;51.098;13.770;2023-05-10T00:19:31;1.42;;;1.30;;
65751;SDS011;52486;51.098;13.770;2023-05-10T00:21:57;2.33;;;1.70;;
65751;SDS011;52486;51.098;13.770;2023-05-10T00:24:22;1.90;;;1.40;;
65751;SDS011;52486;51.098;13.770;2023-05-10T00:26:48;1.50;;;1.40;;
65751;SDS011;52486;51.098;13.770;2023-05-10T00:29:14;2.17;;;1.40;;
65751;SDS011;52486;51.098;13.770;2023-05-10T00:31:40;1.95;;;1.50;;
65751;SDS011;52486;51.098;13.770;2023-05-10T00:34:05;1.75;;;1.55;;
65751;SDS011;52486;51.098;13.770;2023-05-10T00:36:31;2.03;;;1.70;;
65751;SDS011;52486;51.098;13.770;2023-05-10T00:38:57;2.05;;;1.70;;
65751;SDS011;52486;51.098;13.770;2023-05-10T00:41:22;1.48;;;1.38;;
65751;SDS011;52486;51.098;13.770;2023-05-10T00:43:48;1.60;;;1.50;;
65751;SDS011;52486;51.098;13.770;2023-05-10T00:46:14;2.72;;;1.52;;
65751;SDS011;52486;51.098;13.770;2023-05-10T00:48:41;1.48;;;1.38;;
65751;SDS011;52486;51.098;13.770;2023-05-10T00:51:07;1.88;;;1.67;;
65751;SDS011;52486;51.098;13.770;2023-05-10T00:53:34;1.50;;;1.40;;
65751;SDS011;52486;51.098;13.770;2023-05-10T00:56:00;1.80;;;1.52;;
65751;SDS011;52486;51.098;13.770;2023-05-10T00:58:28;1.58;;;1.48;;
65751;SDS011;52486;51.098;13.770;2023-05-10T01:00:55;1.50;;;1.40;;
65751;SDS011;52486;51.098;13.770;2023-05-10T01:05:51;1.58;;;1.48;;
65751;SDS011;52486;51.098;13.770;2023-05-10T01:08:17;1.50;;;1.40;;
65751;SDS011;52486;51.098;13.770;2023-05-10T01:10:43;2.00;;;1.50;;
65751;SDS011;52486;51.098;13.770;2023-05-10T01:13:09;1.75;;;1.25;;
65751;SDS011;52486;51.098;13.770;2023-05-10T01:15:37;1.52;;;1.40;;
65751;SDS011;52486;51.098;13.770;2023-05-10T01:18:03;1.58;;;1.13;;
65751;SDS011;52486;51.098;13.770;2023-05-10T01:20:42;1.55;;;1.45;;
65751;SDS011;52486;51.098;13.770;2023-05-10T01:23:48;1.80;;;1.50;;
65751;SDS011;52486;51.098;13.770;2023-05-10T01:31:55;2.03;;;1.42;;
65751;SDS011;52486;51.098;13.770;2023-05-10T01:34:25;1.52;;;1.42;;
65751;SDS011;52486;51.098;13.770;2023-05-10T01:37:02;1.80;;;1.50;;
65751;SDS011;52486;51.098;13.770;2023-05-10T01:42:17;3.25;;;1.58;;
65751;SDS011;52486;51.098;13.770;2023-05-10T01:44:48;2.85;;;1.77;;
65751;SDS011;52486;51.098;13.770;2023-05-10T01:50:01;2.22;;;1.70;;
65751;SDS011;52486;51.098;13.770;2023-05-10T01:52:36;1.42;;;1.20;;
65751;SDS011;52486;51.098;13.770;2023-05-10T01:55:06;1.58;;;1.30;;
65751;SDS011;52486;51.098;13.770;2023-05-10T01:57:32;1.77;;;1.58;;
65751;SDS011;52486;51.098;13.770;2023-05-10T01:59:59;2.85;;;1.77;;
65751;SDS011;52486;51.098;13.770;2023-05-10T02:02:27;1.95;;;1.40;;
65751;SDS011;52486;51.098;13.770;2023-05-10T02:04:57;2.05;;;1.75;;
65751;SDS011;52486;51.098;13.770;2023-05-10T02:07:26;1.40;;;1.30;;
65751;SDS011;52486;51.098;13.770;2023-05-10T02:09:52;2.15;;;1.70;;
65751;SDS011;52486;51.098;13.770;2023-05-10T02:12:19;1.67;;;1.58;;
65751;SDS011;52486;51.098;13.770;2023-05-10T02:14:46;1.70;;;1.60;;
65751;SDS011;52486;51.098;13.770;2023-05-10T02:17:13;1.67;;;1.50;;
65751;SDS011;52486;51.098;13.770;2023-05-10T02:19:40;1.67;;;1.55;;
65751;SDS011;52486;51.098;13.770;2023-05-10T02:22:08;2.13;;;1.55;;
65751;SDS011;52486;51.098;13.770;2023-05-10T02:24:34;1.90;;;1.52;;
65751;SDS011;52486;51.098;13.770;2023-05-10T02:27:02;1.58;;;1.40;;
65751;SDS011;52486;51.098;13.770;2023-05-10T02:29:29;2.28;;;1.60;;
65751;SDS011;52486;51.098;13.770;2023-05-10T02:31:58;1.60;;;1.45;;
65751;SDS011;52486;51.098;13.770;2023-05-10T02:34:27;1.58;;;1.45;;
65751;SDS011;52486;51.098;13.770;2023-05-10T02:36:55;1.50;;;1.40;;
65751;SDS011;52486;51.098;13.770;2023-05-10T02:39:21;1.85;;;1.60;;
65751;SDS011;52486;51.098;13.770;2023-05-10T02:41:48;3.35;;;1.80;;
65751;SDS011;52486;51.098;13.770;2023-05-10T02:44:17;1.90;;;1.60;;
65751;SDS011;52486;51.098;13.770;2023-05-10T02:46:44;1.90;;;1.70;;
65751;SDS011;52486;51.098;13.770;2023-05-10T02:49:10;2.67;;;1.50;;
65751;SDS011;52486;51.098;13.770;2023-05-10T02:51:37;2.45;;;1.52;;
65751;SDS011;52486;51.098;13.770;2023-05-10T02:54:18;1.77;;;1.58;;
65751;SDS011;52486;51.098;13.770;2023-05-10T02:56:47;1.60;;;1.50;;
65751;SDS011;52486;51.098;13.770;2023-05-10T02:59:23;4.63;;;1.60;;
65751;SDS011;52486;51.098;13.770;2023-05-10T03:01:49;1.60;;;1.50;;
65751;SDS011;52486;51.098;13.770;2023-05-10T03:04:15;2.50;;;1.48;;
65751;SDS011;52486;51.098;13.770;2023-05-10T03:06:41;1.50;;;1.40;;
65751;SDS011;52486;51.098;13.770;2023-05-10T03:09:07;2.75;;;1.60;;
65751;SDS011;52486;51.098;13.770;2023-05-10T03:16:42;1.85;;;1.40;;
65751;SDS011;52486;51.098;13.770;2023-05-10T03:19:16;1.85;;;1.38;;
65751;SDS011;52486;51.098;13.770;2023-05-10T03:21:47;1.30;;;1.20;;
65751;SDS011;52486;51.098;13.770;2023-05-10T03:24:18;2.55;;;1.50;;
65751;SDS011;52486;51.098;13.770;2023-05-10T03:26:46;1.50;;;1.40;;
65751;SDS011;52486;51.098;13.770;2023-05-10T03:29:13;2.08;;;1.50;;
65751;SDS011;52486;51.098;13.770;2023-05-10T03:31:40;1.40;;;1.30;;
65751;SDS011;52486;51.098;13.770;2023-05-10T03:34:06;2.03;;;1.48;;
65751;SDS011;52486;51.098;13.770;2023-05-10T03:36:32;1.60;;;1.30;;
65751;SDS011;52486;51.098;13.770;2023-05-10T03:38:59;1.50;;;1.40;;
65751;SDS011;52486;51.098;13.770;2023-05-10T03:41:25;1.67;;;1.55;;
65751;SDS011;52486;51.098;13.770;2023-05-10T03:43:53;1.65;;;1.27;;
65751;SDS011;52486;51.098;13.770;2023-05-10T03:46:21;1.70;;;1.40;;
65751;SDS011;52486;51.098;13.770;2023-05-10T03:48:47;2.35;;;1.60;;
65751;SDS011;52486;51.098;13.770;2023-05-10T03:51:13;1.50;;;1.40;;
65751;SDS011;52486;51.098;13.770;2023-05-10T03:53:38;2.10;;;1.52;;
65751;SDS011;52486;51.098;13.770;2023-05-10T03:56:04;4.38;;;1.42;;
65751;SDS011;52486;51.098;13.770;2023-05-10T03:58:30;1.48;;;1.38;;
65751;SDS011;52486;51.098;13.770;2023-05-10T04:00:56;1.95;;;1.50;;
65751;SDS011;52486;51.098;13.770;2023-05-10T04:03:21;1.65;;;1.40;;
65751;SDS011;52486;51.098;13.770;2023-05-10T04:05:48;2.20;;;1.30;;
65751;SDS011;52486;51.098;13.770;2023-05-10T04:08:14;1.60;;;1.50;;
65751;SDS011;52486;51.098;13.770;2023-05-10T04:10:41;1.30;;;1.20;;
65751;SDS011;52486;51.098;13.770;2023-05-10T04:13:07;1.45;;;1.35;;
65751;SDS011;52486;51.098;13.770;2023-05-10T04:15:34;2.22;;;1.40;;
65751;SDS011;52486;51.098;13.770;2023-05-10T04:18:01;1.92;;;1.30;;
65751;SDS011;52486;51.098;13.770;2023-05-10T04:20:29;1.67;;;1.40;;
65751;SDS011;52486;51.098;13.770;2023-05-10T04:22:57;1.50;;;1.40;;
65751;SDS011;52486;51.098;13.770;2023-05-10T04:25:25;1.85;;;1.35;;
65751;SDS011;52486;51.098;13.770;2023-05-10T04:27:51;1.52;;;1.42;;
65751;SDS011;52486;51.098;13.770;2023-05-10T04:30:17;1.35;;;1.25;;
65751;SDS011;52486;51.098;13.770;2023-05-10T04:35:13;1.52;;;1.42;;
65751;SDS011;52486;51.098;13.770;2023-05-10T04:37:41;1.60;;;1.50;;
65751;SDS011;52486;51.098;13.770;2023-05-10T04:40:10;1.75;;;1.27;;
65751;SDS011;52486;51.098;13.770;2023-05-10T04:42:42;2.28;;;1.42;;
65751;SDS011;52486;51.098;13.770;2023-05-10T04:45:09;1.67;;;1.40;;
65751;SDS011;52486;51.098;13.770;2023-05-10T04:47:36;2.28;;;1.45;;
65751;SDS011;52486;51.098;13.770;2023-05-10T04:50:02;1.75;;;1.42;;
65751;SDS011;52486;51.098;13.770;2023-05-10T04:52:28;1.70;;;1.60;;
65751;SDS011;52486;51.098;13.770;2023-05-10T04:54:54;2.10;;;1.30;;
65751;SDS011;52486;51.098;13.770;2023-05-10T04:57:20;2.08;;;1.38;;
65751;SDS011;52486;51.098;13.770;2023-05-10T04:59:47;3.72;;;1.70;;
65751;SDS011;52486;51.098;13.770;2023-05-10T05:02:13;2.95;;;1.50;;
65751;SDS011;52486;51.098;13.770;2023-05-10T05:04:39;1.50;;;1.40;;
65751;SDS011;52486;51.098;13.770;2023-05-10T05:07:04;2.25;;;1.55;;
65751;SDS011;52486;51.098;13.770;2023-05-10T05:09:30;1.77;;;1.48;;
65751;SDS011;52486;51.098;13.770;2023-05-10T05:12:00;2.58;;;1.55;;
65751;SDS011;52486;51.098;13.770;2023-05-10T05:14:26;2.25;;;1.60;;
65751;SDS011;52486;51.098;13.770;2023-05-10T05:16:53;2.17;;;1.42;;
65751;SDS011;52486;51.098;13.770;2023-05-10T05:19:22;1.67;;;1.58;;
65751;SDS011;52486;51.098;13.770;2023-05-10T05:21:48;3.88;;;1.40;;
65751;SDS011;52486;51.098;13.770;2023-05-10T05:24:13;1.58;;;1.33;;
65751;SDS011;52486;51.098;13.770;2023-05-10T05:26:44;1.83;;;1.50;;
65751;SDS011;52486;51.098;13.770;2023-05-10T05:29:09;1.65;;;1.50;;
65751;SDS011;52486;51.098;13.770;2023-05-10T05:31:35;1.83;;;1.60;;
65751;SDS011;52486;51.098;13.770;2023-05-10T05:34:01;1.65;;;1.38;;
65751;SDS011;52486;51.098;13.770;2023-05-10T05:36:28;2.20;;;1.50;;
65751;SDS011;52486;51.098;13.770;2023-05-10T05:38:53;1.85;;;1.73;;
65751;SDS011;52486;51.098;13.770;2023-05-10T05:41:20;1.98;;;1.50;;
65751;SDS011;52486;51.098;13.770;2023-05-10T05:43:46;2.47;;;1.50;;
65751;SDS011;52486;51.098;13.770;2023-05-10T05:46:12;1.85;;;1.48;;
65751;SDS011;52486;51.098;13.770;2023-05-10T05:48:37;1.30;;;1.20;;
65751;SDS011;52486;51.098;13.770;2023-05-10T05:51:04;3.83;;;1.58;;
65751;SDS011;52486;51.098;13.770;2023-05-10T05:53:30;2.65;;;1.45;;
65751;SDS011;52486;51.098;13.770;2023-05-10T05:55:57;1.80;;;1.70;;
65751;SDS011;52486;51.098;13.770;2023-05-10T05:58:24;1.95;;;1.50;;
65751;SDS011;52486;51.098;13.770;2023-05-10T06:00:51;4.18;;;1.60;;
65751;SDS011;52486;51.098;13.770;2023-05-10T06:03:17;3.45;;;1.58;;
65751;SDS011;52486;51.098;13.770;2023-05-10T06:05:43;2.13;;;1.70;;
65751;SDS011;52486;51.098;13.770;2023-05-10T06:08:10;2.08;;;1.40;;
65751;SDS011;52486;51.098;13.770;2023-05-10T06:10:38;5.88;;;1.60;;
65751;SDS011;52486;51.098;13.770;2023-05-10T06:13:04;2.10;;;1.70;;
65751;SDS011;52486;51.098;13.770;2023-05-10T06:15:32;3.08;;;1.75;;
65751;SDS011;52486;51.098;13.770;2023-05-10T06:17:58;2.13;;;1.60;;
65751;SDS011;52486;51.098;13.770;2023-05-10T06:20:24;3.95;;;1.92;;
65751;SDS011;52486;51.098;13.770;2023-05-10T06:22:50;2.35;;;1.80;;
65751;SDS011;52486;51.098;13.770;2023-05-10T06:25:18;2.83;;;1.75;;
65751;SDS011;52486;51.098;13.770;2023-05-10T06:27:44;4.40;;;1.90;;
65751;SDS011;52486;51.098;13.770;2023-05-10T06:30:10;6.00;;;1.80;;
65751;SDS011;52486;51.098;13.770;2023-05-10T06:32:36;7.05;;;2.00;;
65751;SDS011;52486;51.098;13.770;2023-05-10T06:35:02;4.07;;;1.80;;
65751;SDS011;52486;51.098;13.770;2023-05-10T06:37:29;2.15;;;1.80;;
65751;SDS011;52486;51.098;13.770;2023-05-10T06:39:56;2.30;;;1.95;;
65751;SDS011;52486;51.098;13.770;2023-05-10T06:42:22;3.17;;;2.30;;
65751;SDS011;52486;51.098;13.770;2023-05-10T06:44:50;4.70;;;2.08;;
65751;SDS011;52486;51.098;13.770;2023-05-10T06:47:17;6.28;;;1.98;;
65751;SDS011;52486;51.098;13.770;2023-05-10T06:49:45;2.70;;;1.95;;
65751;SDS011;52486;51.098;13.770;2023-05-10T06:52:11;4.57;;;1.98;;
65751;SDS011;52486;51.098;13.770;2023-05-10T06:54:40;2.55;;;1.85;;
65751;SDS011;52486;51.098;13.770;2023-05-10T06:57:06;3.30;;;2.17;;
65751;SDS011;52486;51.098;13.770;2023-05-10T06:59:32;4.97;;;2.00;;
65751;SDS011;52486;51.098;13.770;2023-05-10T07:01:58;3.67;;;1.85;;
65751;SDS011;52486;51.098;13.770;2023-05-10T07:04:23;4.07;;;2.10;;
65751;SDS011;52486;51.098;13.770;2023-05-10T07:06:50;4.03;;;1.95;;
65751;SDS011;52486;51.098;13.770;2023-05-10T07:09:16;2.55;;;1.80;;
65751;SDS011;52486;51.098;13.770;2023-05-10T07:11:43;2.42;;;2.03;;
65751;SDS011;52486;51.098;13.770;2023-05-10T07:14:11;2.45;;;2.00;;
65751;SDS011;52486;51.098;13.770;2023-05-10T07:16:39;8.30;;;1.95;;
65751;SDS011;52486;51.098;13.770;2023-05-10T07:19:08;4.85;;;1.80;;
65751;SDS011;52486;51.098;13.770;2023-05-10T07:21:34;4.10;;;2.00;;
65751;SDS011;52486;51.098;13.770;2023-05-10T07:24:00;4.40;;;1.77;;
65751;SDS011;52486;51.098;13.770;2023-05-10T07:28:56;4.68;;;1.90;;
65751;SDS011;52486;51.098;13.770;2023-05-10T07:31:22;3.65;;;2.10;;
65751;SDS011;52486;51.098;13.770;2023-05-10T07:33:55;6.13;;;1.85;;
65751;SDS011;52486;51.098;13.770;2023-05-10T07:38:52;9.50;;;1.80;;
65751;SDS011;52486;51.098;13.770;2023-05-10T07:41:19;3.38;;;1.80;;
65751;SDS011;52486;51.098;13.770;2023-05-10T07:43:47;7.38;;;1.83;;
65751;SDS011;52486;51.098;13.770;2023-05-10T07:46:12;7.97;;;2.08;;
65751;SDS011;52486;51.098;13.770;2023-05-10T07:48:38;2.25;;;1.80;;
65751;SDS011;52486;51.098;13.770;2023-05-10T07:51:04;6.70;;;1.60;;
65751;SDS011;52486;51.098;13.770;2023-05-10T07:53:35;2.35;;;1.30;;
65751;SDS011;52486;51.098;13.770;2023-05-10T07:56:19;8.18;;;1.50;;
65751;SDS011;52486;51.098;13.770;2023-05-10T07:59:01;5.35;;;1.75;;
65751;SDS011;52486;51.098;13.770;2023-05-10T08:01:32;6.53;;;1.60;;
65751;SDS011;52486;51.098;13.770;2023-05-10T08:04:00;11.77;;;1.67;;
65751;SDS011;52486;51.098;13.770;2023-05-10T08:06:26;5.18;;;1.58;;
65751;SDS011;52486;51.098;13.770;2023-05-10T08:08:58;4.18;;;1.40;;
65751;SDS011;52486;51.098;13.770;2023-05-10T08:11:26;2.88;;;1.35;;
65751;SDS011;52486;51.098;13.770;2023-05-10T08:13:56;3.15;;;1.80;;
65751;SDS011;52486;51.098;13.770;2023-05-10T08:16:22;2.80;;;1.52;;
65751;SDS011;52486;51.098;13.770;2023-05-10T08:18:49;4.43;;;1.40;;
65751;SDS011;52486;51.098;13.770;2023-05-10T08:21:16;1.63;;;1.52;;
65751;SDS011;52486;51.098;13.770;2023-05-10T08:23:44;4.55;;;1.70;;
65751;SDS011;52486;51.098;13.770;2023-05-10T08:26:12;5.32;;;1.75;;
65751;SDS011;52486;51.098;13.770;2023-05-10T08:28:39;3.25;;;1.42;;
65751;SDS011;52486;51.098;13.770;2023-05-10T08:31:05;3.03;;;1.58;;
65751;SDS011;52486;51.098;13.770;2023-05-10T08:33:34;4.93;;;1.30;;
65751;SDS011;52486;51.098;13.770;2023-05-10T08:36:03;6.20;;;1.60;;
65751;SDS011;52486;51.098;13.770;2023-05-10T08:38:33;5.38;;;1.42;;
65751;SDS011;52486;51.098;13.770;2023-05-10T08:40:59;5.45;;;1.63;;
65751;SDS011;52486;51.098;13.770;2023-05-10T08:43:29;5.05;;;1.65;;
65751;SDS011;52486;51.098;13.770;2023-05-10T08:45:55;5.15;;;1.88;;
65751;SDS011;52486;51.098;13.770;2023-05-10T08:48:24;5.32;;;1.67;;
65751;SDS011;52486;51.098;13.770;2023-05-10T08:50:51;4.38;;;1.55;;
65751;SDS011;52486;51.098;13.770;2023-05-10T08:53:19;3.42;;;1.45;;
65751;SDS011;52486;51.098;13.770;2023-05-10T08:55:46;3.95;;;1.67;;
65751;SDS011;52486;51.098;13.770;2023-05-10T08:58:14;3.60;;;1.58;;
65751;SDS011;52486;51.098;13.770;2023-05-10T09:00:41;2.13;;;1.73;;
65751;SDS011;52486;51.098;13.770;2023-05-10T09:03:07;2.95;;;1.70;;
65751;SDS011;52486;51.098;13.770;2023-05-10T09:05:35;2.88;;;1.70;;
65751;SDS011;52486;51.098;13.770;2023-05-10T09:08:03;2.83;;;1.48;;
65751;SDS011;52486;51.098;13.770;2023-05-10T09:10:29;2.45;;;1.67;;
65751;SDS011;52486;51.098;13.770;2023-05-10T09:12:56;2.30;;;1.60;;
65751;SDS011;52486;51.098;13.770;2023-05-10T09:15:22;1.98;;;1.35;;
65751;SDS011;52486;51.098;13.770;2023-05-10T09:17:49;1.65;;;1.55;;
65751;SDS011;52486;51.098;13.770;2023-05-10T09:20:15;1.55;;;1.38;;
65751;SDS011;52486;51.098;13.770;2023-05-10T09:22:42;2.65;;;1.60;;
65751;SDS011;52486;51.098;13.770;2023-05-10T09:25:10;2.15;;;1.40;;
65751;SDS011;52486;51.098;13.770;2023-05-10T09:27:37;3.33;;;1.73;;
65751;SDS011;52486;51.098;13.770;2023-05-10T09:30:04;2.58;;;1.50;;
65751;SDS011;52486;51.098;13.770;2023-05-10T09:32:37;6.38;;;1.55;;
65751;SDS011;52486;51.098;13.770;2023-05-10T09:35:22;4.20;;;1.58;;
65751;SDS011;52486;51.098;13.770;2023-05-10T09:37:49;4.47;;;1.52;;
65751;SDS011;52486;51.098;13.770;2023-05-10T09:40:22;2.42;;;1.35;;
65751;SDS011;52486;51.098;13.770;2023-05-10T09:43:00;5.25;;;1.80;;
65751;SDS011;52486;51.098;13.770;2023-05-10T09:45:31;3.50;;;1.60;;
65751;SDS011;52486;51.098;13.770;2023-05-10T09:47:58;2.60;;;1.92;;
65751;SDS011;52486;51.098;13.770;2023-05-10T09:50:25;8.77;;;1.58;;
65751;SDS011;52486;51.098;13.770;2023-05-10T09:55:22;2.17;;;1.67;;
65751;SDS011;52486;51.098;13.770;2023-05-10T09:57:58;2.42;;;1.45;;
65751;SDS011;52486;51.098;13.770;2023-05-10T10:00:26;1.60;;;1.50;;
65751;SDS011;52486;51.098;13.770;2023-05-10T10:02:57;2.20;;;1.58;;
65751;SDS011;52486;51.098;13.770;2023-05-10T10:05:30;1.60;;;1.40;;
65751;SDS011;52486;51.098;13.770;2023-05-10T10:07:57;1.85;;;1.38;;
65751;SDS011;52486;51.098;13.770;2023-05-10T10:10:24;1.75;;;1.50;;
65751;SDS011;52486;51.098;13.770;2023-05-10T10:12:52;2.83;;;1.50;;
65751;SDS011;52486;51.098;13.770;2023-05-10T10:15:18;2.03;;;1.55;;
65751;SDS011;52486;51.098;13.770;2023-05-10T10:17:45;1.50;;;1.40;;
65751;SDS011;52486;51.098;13.770;2023-05-10T10:22:41;1.92;;;1.52;;
65751;SDS011;52486;51.098;13.770;2023-05-10T10:25:10;10.07;;;1.83;;
65751;SDS011;52486;51.098;13.770;2023-05-10T10:30:51;6.68;;;1.70;;
65751;SDS011;52486;51.098;13.770;2023-05-10T10:36:15;4.80;;;1.70;;
65751;SDS011;52486;51.098;13.770;2023-05-10T10:54:49;2.70;;;1.40;;
65751;SDS011;52486;51.098;13.770;2023-05-10T10:57:17;7.53;;;1.80;;
65751;SDS011;52486;51.098;13.770;2023-05-10T10:59:44;2.65;;;1.80;;
65751;SDS011;52486;51.098;13.770;2023-05-10T11:02:33;9.40;;;1.80;;
65751;SDS011;52486;51.098;13.770;2023-05-10T11:04:58;10.23;;;2.03;;
65751;SDS011;52486;51.098;13.770;2023-05-10T11:07:24;3.33;;;1.67;;
65751;SDS011;52486;51.098;13.770;2023-05-10T11:09:50;4.25;;;1.52;;
65751;SDS011;52486;51.098;13.770;2023-05-10T11:12:27;1.83;;;1.60;;
65751;SDS011;52486;51.098;13.770;2023-05-10T11:15:05;8.95;;;1.80;;
65751;SDS011;52486;51.098;13.770;2023-05-10T11:17:36;7.85;;;2.00;;
65751;SDS011;52486;51.098;13.770;2023-05-10T11:25:01;1.88;;;1.67;;
65751;SDS011;52486;51.098;13.770;2023-05-10T11:27:36;2.05;;;1.60;;
65751;SDS011;52486;51.098;13.770;2023-05-10T11:30:04;1.70;;;1.60;;
65751;SDS011;52486;51.098;13.770;2023-05-10T11:32:30;3.58;;;1.98;;
65751;SDS011;52486;51.098;13.770;2023-05-10T11:35:00;9.52;;;2.08;;
65751;SDS011;52486;51.098;13.770;2023-05-10T11:37:32;8.27;;;1.83;;
65751;SDS011;52486;51.098;13.770;2023-05-10T11:40:01;8.82;;;1.73;;
65751;SDS011;52486;51.098;13.770;2023-05-10T11:45:34;2.65;;;1.90;;
65751;SDS011;52486;51.098;13.770;2023-05-10T11:48:02;5.87;;;1.80;;
65751;SDS011;52486;51.098;13.770;2023-05-10T11:50:29;2.35;;;1.75;;
65751;SDS011;52486;51.098;13.770;2023-05-10T11:52:57;6.75;;;2.00;;
65751;SDS011;52486;51.098;13.770;2023-05-10T11:55:23;3.17;;;1.63;;
65751;SDS011;52486;51.098;13.770;2023-05-10T11:57:53;2.10;;;1.90;;
65751;SDS011;52486;51.098;13.770;2023-05-10T12:00:19;3.65;;;1.77;;
65751;SDS011;52486;51.098;13.770;2023-05-10T12:02:47;9.18;;;1.80;;
65751;SDS011;52486;51.098;13.770;2023-05-10T12:05:14;2.83;;;1.70;;
65751;SDS011;52486;51.098;13.770;2023-05-10T12:07:51;1.95;;;1.63;;
65751;SDS011;52486;51.098;13.770;2023-05-10T12:10:26;2.08;;;1.73;;
65751;SDS011;52486;51.098;13.770;2023-05-10T12:13:01;9.60;;;1.80;;
65751;SDS011;52486;51.098;13.770;2023-05-10T12:15:28;3.70;;;1.83;;
65751;SDS011;52486;51.098;13.770;2023-05-10T12:17:57;3.92;;;1.77;;
65751;SDS011;52486;51.098;13.770;2023-05-10T12:20:31;3.13;;;1.70;;
65751;SDS011;52486;51.098;13.770;2023-05-10T12:22:58;4.72;;;1.83;;
65751;SDS011;52486;51.098;13.770;2023-05-10T12:25:35;2.42;;;1.88;;
65751;SDS011;52486;51.098;13.770;2023-05-10T12:28:05;5.15;;;1.90;;
65751;SDS011;52486;51.098;13.770;2023-05-10T12:33:11;6.45;;;1.75;;
65751;SDS011;52486;51.098;13.770;2023-05-10T12:40:56;2.00;;;1.67;;
65751;SDS011;52486;51.098;13.770;2023-05-10T12:43:24;4.15;;;2.00;;
65751;SDS011;52486;51.098;13.770;2023-05-10T12:45:50;6.57;;;1.90;;
65751;SDS011;52486;51.098;13.770;2023-05-10T12:48:19;6.32;;;1.83;;
65751;SDS011;52486;51.098;13.770;2023-05-10T12:50:48;7.07;;;1.88;;
65751;SDS011;52486;51.098;13.770;2023-05-10T12:53:14;2.85;;;1.70;;
65751;SDS011;52486;51.098;13.770;2023-05-10T12:55:44;4.05;;;2.00;;
65751;SDS011;52486;51.098;13.770;2023-05-10T12:58:10;6.85;;;2.03;;
65751;SDS011;52486;51.098;13.770;2023-05-10T13:00:36;4.03;;;1.90;;
65751;SDS011;52486;51.098;13.770;2023-05-10T13:03:03;4.28;;;2.35;;
65751;SDS011;52486;51.098;13.770;2023-05-10T13:05:31;2.08;;;1.90;;
65751;SDS011;52486;51.098;13.770;2023-05-10T13:07:57;3.45;;;2.13;;
65751;SDS011;52486;51.098;13.770;2023-05-10T13:10:23;4.45;;;2.10;;
65751;SDS011;52486;51.098;13.770;2023-05-10T13:12:50;6.25;;;2.05;;
65751;SDS011;52486;51.098;13.770;2023-05-10T13:15:17;4.28;;;1.80;;
65751;SDS011;52486;51.098;13.770;2023-05-10T13:17:45;3.42;;;2.00;;
65751;SDS011;52486;51.098;13.770;2023-05-10T13:20:11;9.35;;;2.28;;
65751;SDS011;52486;51.098;13.770;2023-05-10T13:22:37;2.53;;;2.13;;
65751;SDS011;52486;51.098;13.770;2023-05-10T13:25:03;4.07;;;1.80;;
65751;SDS011;52486;51.098;13.770;2023-05-10T13:27:29;6.00;;;1.95;;
65751;SDS011;52486;51.098;13.770;2023-05-10T13:29:55;6.90;;;2.00;;
65751;SDS011;52486;51.098;13.770;2023-05-10T13:32:21;1.95;;;1.85;;
65751;SDS011;52486;51.098;13.770;2023-05-10T13:34:47;3.67;;;2.13;;
65751;SDS011;52486;51.098;13.770;2023-05-10T13:37:13;2.78;;;1.83;;
65751;SDS011;52486;51.098;13.770;2023-05-10T13:39:40;2.75;;;2.00;;
65751;SDS011;52486;51.098;13.770;2023-05-10T13:42:06;3.78;;;1.80;;
65751;SDS011;52486;51.098;13.770;2023-05-10T13:44:32;3.72;;;1.77;;
65751;SDS011;52486;51.098;13.770;2023-05-10T13:46:58;4.20;;;1.80;;
65751;SDS011;52486;51.098;13.770;2023-05-10T13:49:24;1.90;;;1.80;;
65751;SDS011;52486;51.098;13.770;2023-05-10T13:54:19;4.13;;;1.75;;
65751;SDS011;52486;51.098;13.770;2023-05-10T13:56:47;5.30;;;1.90;;
65751;SDS011;52486;51.098;13.770;2023-05-10T13:59:18;1.70;;;1.60;;
65751;SDS011;52486;51.098;13.770;2023-05-10T14:01:46;2.40;;;1.70;;
65751;SDS011;52486;51.098;13.770;2023-05-10T14:04:12;2.97;;;1.80;;
65751;SDS011;52486;51.098;13.770;2023-05-10T14:06:39;2.15;;;1.70;;
65751;SDS011;52486;51.098;13.770;2023-05-10T14:09:09;3.85;;;1.80;;
65751;SDS011;52486;51.098;13.770;2023-05-10T14:11:35;3.10;;;1.85;;
65751;SDS011;52486;51.098;13.770;2023-05-10T14:14:01;3.38;;;1.95;;
65751;SDS011;52486;51.098;13.770;2023-05-10T14:16:28;5.43;;;1.85;;
65751;SDS011;52486;51.098;13.770;2023-05-10T14:19:00;5.53;;;2.33;;
65751;SDS011;52486;51.098;13.770;2023-05-10T14:21:33;2.55;;;1.83;;
65751;SDS011;52486;51.098;13.770;2023-05-10T14:24:02;3.75;;;1.90;;
65751;SDS011;52486;51.098;13.770;2023-05-10T14:26:28;4.97;;;1.88;;
65751;SDS011;52486;51.098;13.770;2023-05-10T14:28:54;3.75;;;1.50;;
65751;SDS011;52486;51.098;13.770;2023-05-10T14:31:20;3.35;;;2.13;;
65751;SDS011;52486;51.098;13.770;2023-05-10T14:36:20;2.28;;;1.67;;
65751;SDS011;52486;51.098;13.770;2023-05-10T14:38:46;1.97;;;1.80;;
65751;SDS011;52486;51.098;13.770;2023-05-10T14:41:12;2.95;;;1.70;;
65751;SDS011;52486;51.098;13.770;2023-05-10T14:43:43;2.58;;;2.03;;
65751;SDS011;52486;51.098;13.770;2023-05-10T14:46:10;1.80;;;1.70;;
65751;SDS011;52486;51.098;13.770;2023-05-10T14:53:43;3.28;;;1.70;;
65751;SDS011;52486;51.098;13.770;2023-05-10T14:56:11;3.58;;;1.90;;
65751;SDS011;52486;51.098;13.770;2023-05-10T14:58:42;8.60;;;2.08;;
65751;SDS011;52486;51.098;13.770;2023-05-10T15:03:39;3.10;;;1.63;;
65751;SDS011;52486;51.098;13.770;2023-05-10T15:06:05;2.78;;;2.22;;
65751;SDS011;52486;51.098;13.770;2023-05-10T15:08:34;4.38;;;1.80;;
65751;SDS011;52486;51.098;13.770;2023-05-10T15:11:08;3.08;;;1.98;;
65751;SDS011;52486;51.098;13.770;2023-05-10T15:13:34;5.55;;;1.60;;
65751;SDS011;52486;51.098;13.770;2023-05-10T15:16:00;4.50;;;1.77;;
65751;SDS011;52486;51.098;13.770;2023-05-10T15:18:27;7.40;;;1.60;;
65751;SDS011;52486;51.098;13.770;2023-05-10T15:20:53;4.72;;;1.70;;
65751;SDS011;52486;51.098;13.770;2023-05-10T15:23:20;2.08;;;1.80;;
65751;SDS011;52486;51.098;13.770;2023-05-10T15:25:48;4.00;;;1.77;;
65751;SDS011;52486;51.098;13.770;2023-05-10T15:28:16;2.20;;;1.80;;
65751;SDS011;52486;51.098;13.770;2023-05-10T15:30:42;3.65;;;1.70;;
65751;SDS011;52486;51.098;13.770;2023-05-10T15:33:08;4.60;;;1.75;;
65751;SDS011;52486;51.098;13.770;2023-05-10T15:35:34;4.10;;;1.65;;
65751;SDS011;52486;51.098;13.770;2023-05-10T15:38:00;1.60;;;1.50;;
65751;SDS011;52486;51.098;13.770;2023-05-10T15:40:26;3.33;;;1.60;;
65751;SDS011;52486;51.098;13.770;2023-05-10T15:42:52;2.40;;;1.80;;
65751;SDS011;52486;51.098;13.770;2023-05-10T15:45:18;2.63;;;1.83;;
65751;SDS011;52486;51.098;13.770;2023-05-10T15:47:44;2.13;;;1.50;;
65751;SDS011;52486;51.098;13.770;2023-05-10T15:50:11;3.50;;;1.60;;
65751;SDS011;52486;51.098;13.770;2023-05-10T15:52:37;3.03;;;1.42;;
65751;SDS011;52486;51.098;13.770;2023-05-10T15:55:03;1.75;;;1.60;;
65751;SDS011;52486;51.098;13.770;2023-05-10T15:57:30;1.52;;;1.30;;